Time;durP1;ratioP1;P1;durP2;ratioP2;P2;SDS_P1;SDS_P2;PMS_P1;PMS_P2;Temp;Humidity;BMP_temperature;BMP_pressure;BME280_temperature;BME280_humidity;BME280_pressure;Samples;Min_cycle;Max_cycle;Signal;HPM_P1;HPM_P2
2022/07/11 00:00:55;;;;;;;;;;;11.80;62.80;;;;;;4181554;28;19980;-84
2022/07/11 00:03:15;;;;;;;;;;;11.80;62.70;;;;;;4174856;28;19985;-85
2022/07/11 00:05:37;;;;;;;;;;;11.80;62.70;;;;;;4183780;28;20358;-85
2022/07/11 00:07:58;;;;;;;;;;;11.80;62.70;;;;;;4186011;28;20358;-85
2022/07/11 00:10:19;;;;;;;;;;;11.70;62.50;;;;;;4188043;28;19912;-86
2022/07/11 00:12:39;;;;;;;;;;;11.70;62.50;;;;;;4170623;28;19909;-85
2022/07/11 00:15:00;;;;;;;;;;;11.70;62.20;;;;;;4188659;28;19908;-85
2022/07/11 00:17:21;;;;;;;;;;;11.70;62.30;;;;;;4177726;28;20508;-85
2022/07/11 00:19:42;;;;;;;;;;;11.70;62.30;;;;;;4174095;28;19913;-86
2022/07/11 00:22:04;;;;;;;;;;;11.70;62.30;;;;;;4187640;28;19944;-85
2022/07/11 00:24:24;;;;;;;;;;;11.60;62.20;;;;;;4184802;28;19916;-86
2022/07/11 00:26:46;;;;;;;;;;;11.60;62.40;;;;;;4172277;28;19913;-86
2022/07/11 00:29:07;;;;;;;;;;;11.60;62.60;;;;;;4188168;28;19927;-87
2022/07/11 00:31:28;;;;;;;;;;;11.60;62.70;;;;;;4192571;28;19912;-85
2022/07/11 00:33:49;;;;;;;;;;;11.50;62.60;;;;;;4192052;28;19912;-85
2022/07/11 00:36:10;;;;;;;;;;;11.50;62.50;;;;;;4188230;28;19912;-85
2022/07/11 00:38:30;;;;;;;;;;;11.50;62.50;;;;;;4174982;28;19913;-85
2022/07/11 00:40:51;;;;;;;;;;;11.50;62.40;;;;;;4186468;28;20581;-85
2022/07/11 00:43:12;;;;;;;;;;;11.50;62.50;;;;;;4189417;28;19915;-85
2022/07/11 00:45:33;;;;;;;;;;;11.40;62.40;;;;;;4165757;28;19916;-85
2022/07/11 00:47:55;;;;;;;;;;;11.50;62.50;;;;;;4177932;28;19909;-85
2022/07/11 00:50:17;;;;;;;;;;;11.40;62.60;;;;;;4187650;28;20303;-84
2022/07/11 00:52:38;;;;;;;;;;;11.40;62.70;;;;;;4181524;28;19908;-85
2022/07/11 00:54:58;;;;;;;;;;;11.40;62.70;;;;;;4178628;28;19993;-85
2022/07/11 00:57:19;;;;;;;;;;;11.40;62.80;;;;;;4183428;28;20445;-85
2022/07/11 00:59:40;;;;;;;;;;;11.30;62.90;;;;;;4185724;28;19912;-86
2022/07/11 01:02:02;;;;;;;;;;;11.40;63.00;;;;;;4190030;28;19912;-84
2022/07/11 01:04:22;;;;;;;;;;;11.30;63.00;;;;;;4191069;28;19931;-84
2022/07/11 01:06:46;;;;;;;;;;;11.30;63.10;;;;;;4187379;28;20018;-85
2022/07/11 01:09:07;;;;;;;;;;;11.30;64.00;;;;;;4171095;28;19912;-86
2022/07/11 01:11:28;;;;;;;;;;;11.30;63.40;;;;;;4190866;28;19920;-84
2022/07/11 01:13:49;;;;;;;;;;;11.30;63.50;;;;;;4176939;28;19909;-84
2022/07/11 01:16:10;;;;;;;;;;;11.30;63.70;;;;;;4187967;28;19912;-85
2022/07/11 01:18:31;;;;;;;;;;;11.20;63.60;;;;;;4189382;28;19920;-84
2022/07/11 01:20:52;;;;;;;;;;;11.20;63.90;;;;;;4175168;28;19912;-88
2022/07/11 01:23:13;;;;;;;;;;;11.20;63.90;;;;;;4190391;28;19908;-86
2022/07/11 01:25:34;;;;;;;;;;;11.30;64.20;;;;;;4176522;28;20003;-85
2022/07/11 01:27:58;;;;;;;;;;;11.20;64.20;;;;;;4190381;28;19944;-85
2022/07/11 01:30:19;;;;;;;;;;;11.20;64.30;;;;;;4175968;28;19912;-85
2022/07/11 01:32:40;;;;;;;;;;;11.10;64.40;;;;;;4188497;28;19912;-85
2022/07/11 01:35:01;;;;;;;;;;;11.10;64.40;;;;;;4174140;28;19908;-85
2022/07/11 01:37:22;;;;;;;;;;;11.10;64.60;;;;;;4175342;28;20302;-85
2022/07/11 01:39:43;;;;;;;;;;;11.10;64.70;;;;;;4189137;28;19910;-85
2022/07/11 01:42:04;;;;;;;;;;;11.10;64.80;;;;;;4187851;28;19908;-85
2022/07/11 01:44:25;;;;;;;;;;;11.10;64.80;;;;;;4175931;28;19917;-85
2022/07/11 01:46:46;;;;;;;;;;;11.10;64.80;;;;;;4176624;28;20367;-85
2022/07/11 01:49:07;;;;;;;;;;;11.10;65.00;;;;;;4186633;28;19912;-85
2022/07/11 01:51:28;;;;;;;;;;;11.10;65.00;;;;;;4191104;28;19912;-85
2022/07/11 01:53:49;;;;;;;;;;;11.10;64.90;;;;;;4186423;28;19912;-85
2022/07/11 01:56:10;;;;;;;;;;;11.10;65.00;;;;;;4172814;28;20060;-85
2022/07/11 01:58:31;;;;;;;;;;;11.10;65.10;;;;;;4172973;28;20008;-86
2022/07/11 02:00:52;;;;;;;;;;;11.10;65.20;;;;;;4185301;28;19919;-84
2022/07/11 02:03:12;;;;;;;;;;;11.00;65.20;;;;;;4173531;28;20003;-85
2022/07/11 02:05:33;;;;;;;;;;;11.00;65.20;;;;;;4168808;28;21117;-85
2022/07/11 02:08:12;;;;;;;;;;;11.00;65.30;;;;;;4188428;28;19908;-86
2022/07/11 02:10:33;;;;;;;;;;;11.00;65.20;;;;;;4187839;28;19923;-85
2022/07/11 02:12:55;;;;;;;;;;;11.00;65.30;;;;;;4188001;28;19984;-85
2022/07/11 02:15:16;;;;;;;;;;;11.00;65.30;;;;;;4173278;28;19919;-84
2022/07/11 02:17:37;;;;;;;;;;;11.00;65.30;;;;;;4170564;28;20286;-85
2022/07/11 02:19:58;;;;;;;;;;;10.90;65.30;;;;;;4186679;28;19908;-85
2022/07/11 02:22:19;;;;;;;;;;;11.00;65.40;;;;;;4173901;28;19908;-85
2022/07/11 02:24:40;;;;;;;;;;;10.90;65.30;;;;;;4176324;28;19909;-85
2022/07/11 02:27:00;;;;;;;;;;;10.90;65.30;;;;;;4184126;28;19909;-85
2022/07/11 02:29:22;;;;;;;;;;;10.90;65.30;;;;;;4191183;28;20607;-86
2022/07/11 02:31:43;;;;;;;;;;;10.90;65.30;;;;;;4173260;28;20457;-85
2022/07/11 02:34:05;;;;;;;;;;;10.80;65.30;;;;;;4175594;28;19912;-85
2022/07/11 02:36:26;;;;;;;;;;;10.80;65.30;;;;;;4189767;28;19966;-85
2022/07/11 02:38:47;;;;;;;;;;;10.80;65.40;;;;;;4184497;28;19909;-84
2022/07/11 02:41:08;;;;;;;;;;;10.80;65.70;;;;;;4186963;28;20286;-85
2022/07/11 02:43:29;;;;;;;;;;;10.70;65.60;;;;;;4186503;28;19963;-85
2022/07/11 02:45:50;;;;;;;;;;;10.70;65.40;;;;;;4169970;28;19975;-85
2022/07/11 02:48:10;;;;;;;;;;;10.70;65.40;;;;;;4174117;28;19970;-86
2022/07/11 02:50:31;;;;;;;;;;;10.70;65.40;;;;;;4186844;28;19973;-85
2022/07/11 02:52:52;;;;;;;;;;;10.60;65.40;;;;;;4186024;28;19915;-85
2022/07/11 02:55:15;;;;;;;;;;;10.60;65.30;;;;;;4175991;28;19909;-85
2022/07/11 02:57:36;;;;;;;;;;;10.60;65.40;;;;;;4186202;28;19927;-85
2022/07/11 02:59:57;;;;;;;;;;;10.60;65.50;;;;;;4172005;28;19971;-84
2022/07/11 03:02:17;;;;;;;;;;;10.60;65.40;;;;;;4184842;28;20328;-86
2022/07/11 03:04:39;;;;;;;;;;;10.50;65.40;;;;;;4187827;28;20450;-84
2022/07/11 03:07:00;;;;;;;;;;;10.50;65.40;;;;;;4187809;28;19913;-85
2022/07/11 03:09:20;;;;;;;;;;;10.50;65.30;;;;;;4176004;28;19913;-85
2022/07/11 03:11:42;;;;;;;;;;;10.40;65.30;;;;;;4185659;28;19908;-85
2022/07/11 03:14:03;;;;;;;;;;;10.40;65.20;;;;;;4187353;28;19919;-85
2022/07/11 03:16:24;;;;;;;;;;;10.40;65.30;;;;;;4174408;28;20203;-85
2022/07/11 03:18:45;;;;;;;;;;;10.40;65.40;;;;;;4186136;28;20019;-85
2022/07/11 03:21:06;;;;;;;;;;;10.40;65.50;;;;;;4187358;28;19912;-85
2022/07/11 03:23:26;;;;;;;;;;;10.30;65.40;;;;;;4170060;28;19963;-87
2022/07/11 03:25:47;;;;;;;;;;;10.30;65.30;;;;;;4187336;28;19919;-85
2022/07/11 03:28:08;;;;;;;;;;;10.30;65.20;;;;;;4188381;28;19915;-85
2022/07/11 03:30:29;;;;;;;;;;;10.30;65.30;;;;;;4176438;28;19947;-86
2022/07/11 03:32:50;;;;;;;;;;;10.30;65.40;;;;;;4177686;28;20359;-85
2022/07/11 03:37:52;;;;;;;;;;;10.30;65.60;;;;;;4188699;28;20385;-85
2022/07/11 03:40:13;;;;;;;;;;;10.30;65.80;;;;;;4174770;28;19979;-86
2022/07/11 03:42:34;;;;;;;;;;;10.30;65.90;;;;;;4187718;28;20396;-85
2022/07/11 03:44:55;;;;;;;;;;;10.30;66.10;;;;;;4188495;28;19919;-85
2022/07/11 03:47:16;;;;;;;;;;;10.40;66.00;;;;;;4189680;28;19917;-86
2022/07/11 03:49:37;;;;;;;;;;;10.40;65.90;;;;;;4187763;28;19913;-85
2022/07/11 03:51:58;;;;;;;;;;;10.40;66.00;;;;;;4187588;28;20383;-85
2022/07/11 03:54:18;;;;;;;;;;;10.40;65.90;;;;;;4186682;28;19970;-86
2022/07/11 03:56:39;;;;;;;;;;;10.50;65.80;;;;;;4172257;28;19913;-85
2022/07/11 03:59:00;;;;;;;;;;;10.50;65.80;;;;;;4185176;28;19908;-85
2022/07/11 04:01:21;;;;;;;;;;;10.50;66.20;;;;;;4185796;28;19917;-84
2022/07/11 04:03:42;;;;;;;;;;;10.60;66.70;;;;;;4186440;28;19920;-85
2022/07/11 04:06:03;;;;;;;;;;;10.60;67.50;;;;;;4168885;28;20437;-85
2022/07/11 04:08:24;;;;;;;;;;;10.70;68.40;;;;;;4184235;28;19912;-85
2022/07/11 04:10:45;;;;;;;;;;;10.80;69.50;;;;;;4195745;28;19992;-88
2022/07/11 04:13:05;;;;;;;;;;;10.90;70.20;;;;;;4201358;28;20358;-86
2022/07/11 04:15:26;;;;;;;;;;;11.00;71.10;;;;;;4187317;28;19916;-84
2022/07/11 04:17:47;;;;;;;;;;;11.10;72.10;;;;;;4184692;28;20009;-85
2022/07/11 04:20:08;;;;;;;;;;;11.20;73.30;;;;;;4186576;28;19908;-85
2022/07/11 04:22:29;;;;;;;;;;;11.30;74.70;;;;;;4171245;28;20373;-85
2022/07/11 04:24:50;;;;;;;;;;;11.50;75.90;;;;;;4168729;28;19917;-86
2022/07/11 04:27:11;;;;;;;;;;;11.60;76.50;;;;;;4184622;28;19943;-85
2022/07/11 04:29:32;;;;;;;;;;;11.80;77.30;;;;;;4185624;28;19973;-85
2022/07/11 04:31:52;;;;;;;;;;;11.90;77.50;;;;;;4171586;28;20829;-84
2022/07/11 04:34:14;;;;;;;;;;;12.10;77.60;;;;;;4184694;28;19920;-85
2022/07/11 04:36:34;;;;;;;;;;;12.30;77.20;;;;;;4189105;28;19920;-87
2022/07/11 04:38:55;;;;;;;;;;;12.40;77.40;;;;;;4187927;28;20464;-85
2022/07/11 04:41:16;;;;;;;;;;;12.50;77.30;;;;;;4176037;28;21595;-85
2022/07/11 04:43:38;;;;;;;;;;;12.70;76.80;;;;;;4172774;28;19916;-86
2022/07/11 04:46:01;;;;;;;;;;;12.80;76.80;;;;;;4187473;28;19909;-85
2022/07/11 04:48:21;;;;;;;;;;;13.00;76.60;;;;;;4175224;28;19913;-85
2022/07/11 04:50:44;;;;;;;;;;;13.10;76.10;;;;;;4186383;28;20310;-85
2022/07/11 04:53:05;;;;;;;;;;;13.30;75.60;;;;;;4184768;28;19986;-85
2022/07/11 04:55:26;;;;;;;;;;;13.30;74.80;;;;;;4186417;28;19912;-86
2022/07/11 04:57:46;;;;;;;;;;;13.40;74.30;;;;;;4189663;28;19927;-85
2022/07/11 05:00:07;;;;;;;;;;;13.50;74.50;;;;;;4173790;28;19909;-86
2022/07/11 05:02:28;;;;;;;;;;;13.60;74.40;;;;;;4170491;28;19950;-86
2022/07/11 05:04:49;;;;;;;;;;;13.70;74.30;;;;;;4185927;28;19916;-84
2022/07/11 05:07:10;;;;;;;;;;;13.80;73.80;;;;;;4176994;28;19909;-84
2022/07/11 05:09:31;;;;;;;;;;;13.90;73.90;;;;;;4198207;28;19912;-84
2022/07/11 05:11:52;;;;;;;;;;;14.00;73.50;;;;;;4191350;28;19915;-85
2022/07/11 05:14:12;;;;;;;;;;;14.10;72.70;;;;;;4189634;28;19961;-86
2022/07/11 05:16:33;;;;;;;;;;;14.20;72.00;;;;;;4188420;28;19919;-85
2022/07/11 05:18:54;;;;;;;;;;;14.30;71.10;;;;;;4172071;28;19908;-85
2022/07/11 05:21:15;;;;;;;;;;;14.40;71.20;;;;;;4182785;28;19912;-85
2022/07/11 05:23:36;;;;;;;;;;;14.40;71.20;;;;;;4174865;28;19917;-84
2022/07/11 05:25:57;;;;;;;;;;;14.50;70.80;;;;;;4174269;28;19908;-84
2022/07/11 05:28:18;;;;;;;;;;;14.50;70.20;;;;;;4179463;28;20442;-85
2022/07/11 05:30:38;;;;;;;;;;;14.60;70.00;;;;;;4174109;28;19924;-85
2022/07/11 05:32:59;;;;;;;;;;;14.70;69.60;;;;;;4188891;28;20334;-85
2022/07/11 05:35:20;;;;;;;;;;;14.70;69.20;;;;;;4182880;28;20375;-84
2022/07/11 05:37:41;;;;;;;;;;;14.70;68.90;;;;;;4167471;28;19963;-85
2022/07/11 05:40:02;;;;;;;;;;;14.80;68.10;;;;;;4181993;28;19978;-84
2022/07/11 05:42:23;;;;;;;;;;;14.80;68.10;;;;;;4170060;28;19967;-84
2022/07/11 05:44:44;;;;;;;;;;;14.80;67.70;;;;;;4184274;28;19908;-84
2022/07/11 05:47:04;;;;;;;;;;;14.90;67.70;;;;;;4185010;28;19908;-85
2022/07/11 05:49:25;;;;;;;;;;;14.90;67.30;;;;;;4189348;28;19912;-86
2022/07/11 05:51:46;;;;;;;;;;;15.10;67.40;;;;;;4186523;28;20354;-84
2022/07/11 05:54:07;;;;;;;;;;;15.00;67.10;;;;;;4175470;28;19976;-85
2022/07/11 05:56:28;;;;;;;;;;;15.00;66.80;;;;;;4182626;28;19916;-84
2022/07/11 05:58:49;;;;;;;;;;;15.00;66.60;;;;;;4180858;28;20373;-85
2022/07/11 06:01:09;;;;;;;;;;;15.10;66.50;;;;;;4177040;28;19909;-85
2022/07/11 06:03:30;;;;;;;;;;;15.10;66.50;;;;;;4187464;28;19912;-84
2022/07/11 06:05:51;;;;;;;;;;;15.10;66.50;;;;;;4186709;28;19909;-85
2022/07/11 06:10:52;;;;;;;;;;;15.20;66.40;;;;;;4190791;28;19921;-84
2022/07/11 06:13:13;;;;;;;;;;;15.20;66.40;;;;;;4185942;28;19912;-84
2022/07/11 06:15:34;;;;;;;;;;;15.20;66.40;;;;;;4171142;28;20409;-86
2022/07/11 06:17:55;;;;;;;;;;;15.30;66.20;;;;;;4184425;28;19920;-87
2022/07/11 06:20:16;;;;;;;;;;;15.30;65.90;;;;;;4169083;28;19920;-86
2022/07/11 06:22:37;;;;;;;;;;;15.30;65.60;;;;;;4183031;28;20349;-85
2022/07/11 06:24:57;;;;;;;;;;;15.30;65.60;;;;;;4185434;28;19908;-86
2022/07/11 06:27:18;;;;;;;;;;;15.40;65.30;;;;;;4183578;28;19912;-86
2022/07/11 06:29:40;;;;;;;;;;;15.40;65.40;;;;;;4174506;28;19921;-84
2022/07/11 06:32:01;;;;;;;;;;;15.50;65.20;;;;;;4186450;28;19913;-86
2022/07/11 06:34:21;;;;;;;;;;;15.50;64.90;;;;;;4181543;28;19991;-86
2022/07/11 06:36:42;;;;;;;;;;;15.50;64.80;;;;;;4185425;28;20009;-85
2022/07/11 06:39:03;;;;;;;;;;;15.60;65.00;;;;;;4172483;28;19913;-85
2022/07/11 06:41:24;;;;;;;;;;;15.60;64.80;;;;;;4168898;28;19905;-86
2022/07/11 06:43:47;;;;;;;;;;;15.70;64.80;;;;;;4180853;28;19919;-84
2022/07/11 06:46:08;;;;;;;;;;;15.70;64.70;;;;;;4177934;28;19916;-85
2022/07/11 06:48:29;;;;;;;;;;;15.80;63.90;;;;;;4172646;28;20306;-85
2022/07/11 06:50:50;;;;;;;;;;;15.80;64.00;;;;;;4169603;28;19913;-87
2022/07/11 06:53:14;;;;;;;;;;;15.90;63.60;;;;;;4164494;28;20430;-87
2022/07/11 06:55:35;;;;;;;;;;;15.90;63.80;;;;;;4165714;28;20364;-87
2022/07/11 06:57:56;;;;;;;;;;;16.00;64.00;;;;;;4184902;28;20419;-86
2022/07/11 07:00:20;;;;;;;;;;;16.10;63.70;;;;;;4180087;28;19994;-84
2022/07/11 07:03:00;;;;;;;;;;;16.20;63.80;;;;;;4175721;28;20310;-87
2022/07/11 07:05:22;;;;;;;;;;;16.20;63.80;;;;;;4166270;28;19913;-85
2022/07/11 07:07:43;;;;;;;;;;;16.30;63.30;;;;;;4181818;28;19955;-85
2022/07/11 07:10:04;;;;;;;;;;;16.40;63.20;;;;;;4182665;28;19912;-85
2022/07/11 07:12:25;;;;;;;;;;;16.40;63.10;;;;;;4181418;28;20627;-85
2022/07/11 07:14:46;;;;;;;;;;;16.40;62.50;;;;;;4171676;28;20388;-86
2022/07/11 07:17:07;;;;;;;;;;;16.50;62.40;;;;;;4186645;28;20363;-86
2022/07/11 07:19:27;;;;;;;;;;;16.60;62.30;;;;;;4184011;28;19909;-88
2022/07/11 07:21:48;;;;;;;;;;;16.60;62.00;;;;;;4166794;28;19916;-85
2022/07/11 07:24:09;;;;;;;;;;;16.60;61.70;;;;;;4184889;28;20328;-86
2022/07/11 07:26:31;;;;;;;;;;;16.70;61.70;;;;;;4181648;28;21460;-87
2022/07/11 07:28:52;;;;;;;;;;;16.80;61.30;;;;;;4182221;28;19908;-85
2022/07/11 07:31:13;;;;;;;;;;;16.80;61.20;;;;;;4187478;28;19916;-85
2022/07/11 07:33:34;;;;;;;;;;;16.90;60.40;;;;;;4171121;28;19916;-84
2022/07/11 07:35:54;;;;;;;;;;;16.90;60.00;;;;;;4188718;28;19917;-86
2022/07/11 07:38:15;;;;;;;;;;;17.00;59.80;;;;;;4182777;28;19946;-86
2022/07/11 07:40:36;;;;;;;;;;;17.00;59.70;;;;;;4181788;28;19939;-84
2022/07/11 07:42:57;;;;;;;;;;;17.00;59.30;;;;;;4177608;28;19917;-86
2022/07/11 07:45:18;;;;;;;;;;;17.10;59.40;;;;;;4170347;28;19916;-84
2022/07/11 07:47:39;;;;;;;;;;;17.10;58.50;;;;;;4184099;28;19908;-84
2022/07/11 07:49:59;;;;;;;;;;;17.10;58.80;;;;;;4170025;28;20658;-84
2022/07/11 07:52:20;;;;;;;;;;;17.20;58.70;;;;;;4177954;28;19912;-87
2022/07/11 07:54:41;;;;;;;;;;;17.20;58.90;;;;;;4166170;28;19917;-87
2022/07/11 07:57:02;;;;;;;;;;;17.30;59.20;;;;;;4163847;28;19971;-86
2022/07/11 07:59:24;;;;;;;;;;;17.40;59.30;;;;;;4186495;28;19912;-85
2022/07/11 08:01:47;;;;;;;;;;;17.40;58.50;;;;;;4181290;28;19913;-85
2022/07/11 08:04:09;;;;;;;;;;;17.50;58.80;;;;;;4186340;28;19908;-84
2022/07/11 08:06:30;;;;;;;;;;;17.50;58.10;;;;;;4184181;28;19998;-85
2022/07/11 08:08:51;;;;;;;;;;;17.60;57.40;;;;;;4183859;28;19919;-84
2022/07/11 08:11:12;;;;;;;;;;;17.60;57.00;;;;;;4189599;28;19912;-84
2022/07/11 08:13:33;;;;;;;;;;;17.60;56.70;;;;;;4171586;28;19913;-87
2022/07/11 08:15:54;;;;;;;;;;;17.60;56.80;;;;;;4173752;28;20170;-85
2022/07/11 08:18:15;;;;;;;;;;;17.70;56.80;;;;;;4191829;28;19912;-85
2022/07/11 08:20:36;;;;;;;;;;;17.70;57.00;;;;;;4177423;28;19917;-84
2022/07/11 08:23:00;;;;;;;;;;;17.70;56.90;;;;;;4182310;28;19919;-84
2022/07/11 08:25:21;;;;;;;;;;;17.80;56.90;;;;;;4176946;28;19991;-87
2022/07/11 08:27:42;;;;;;;;;;;17.80;56.90;;;;;;4182259;28;19917;-89
2022/07/11 08:30:09;;;;;;;;;;;17.90;56.90;;;;;;4188365;28;19916;-84
2022/07/11 08:32:30;;;;;;;;;;;17.90;56.70;;;;;;4173958;28;19959;-85
2022/07/11 08:34:51;;;;;;;;;;;18.00;57.00;;;;;;4170232;28;20517;-85
2022/07/11 08:37:12;;;;;;;;;;;18.10;56.40;;;;;;4181753;28;19923;-86
2022/07/11 08:39:32;;;;;;;;;;;18.10;56.50;;;;;;4172859;28;20386;-87
2022/07/11 08:41:54;;;;;;;;;;;18.20;56.50;;;;;;4184028;28;19952;-85
2022/07/11 08:44:15;;;;;;;;;;;18.20;56.40;;;;;;4173854;28;19917;-85
2022/07/11 08:46:37;;;;;;;;;;;18.20;56.50;;;;;;4173226;28;19909;-85
2022/07/11 08:48:59;;;;;;;;;;;18.30;56.30;;;;;;4175636;28;19908;-86
2022/07/11 08:51:20;;;;;;;;;;;18.30;56.20;;;;;;4187630;28;19909;-85
2022/07/11 08:53:43;;;;;;;;;;;18.40;56.00;;;;;;4173092;28;19920;-85
2022/07/11 08:56:06;;;;;;;;;;;18.40;55.30;;;;;;4181040;28;19905;-84
2022/07/11 08:58:27;;;;;;;;;;;18.50;54.90;;;;;;4168252;28;19917;-86
2022/07/11 09:00:48;;;;;;;;;;;18.50;55.30;;;;;;4167160;28;20294;-85
2022/07/11 09:03:12;;;;;;;;;;;18.60;55.00;;;;;;4179655;28;19927;-86
2022/07/11 09:05:33;;;;;;;;;;;18.70;55.30;;;;;;4180989;28;19916;-86
2022/07/11 09:07:54;;;;;;;;;;;18.70;55.30;;;;;;4185027;28;19913;-86
2022/07/11 09:10:16;;;;;;;;;;;18.70;55.10;;;;;;4182116;28;19924;-87
2022/07/11 09:12:39;;;;;;;;;;;18.80;53.90;;;;;;4179760;28;19908;-87
2022/07/11 09:15:00;;;;;;;;;;;18.90;54.90;;;;;;4173849;28;19947;-88
2022/07/11 09:17:30;;;;;;;;;;;18.90;54.80;;;;;;4171931;28;19997;-85
2022/07/11 09:19:51;;;;;;;;;;;19.00;54.70;;;;;;4165592;28;19916;-86
2022/07/11 09:27:50;;;;;;;;;;;19.20;54.50;;;;;;4182123;28;19913;-87
2022/07/11 09:30:16;;;;;;;;;;;19.30;54.70;;;;;;4172294;28;19990;-86
2022/07/11 09:32:56;;;;;;;;;;;19.40;54.60;;;;;;4177575;28;19916;-86
2022/07/11 09:35:17;;;;;;;;;;;19.40;54.80;;;;;;4165707;28;19924;-86
2022/07/11 09:37:41;;;;;;;;;;;19.50;54.40;;;;;;4181064;28;19996;-86
2022/07/11 09:40:12;;;;;;;;;;;19.50;54.40;;;;;;4168308;28;19948;-86
2022/07/11 09:42:54;;;;;;;;;;;19.60;53.50;;;;;;4180910;28;20007;-86
2022/07/11 09:45:16;;;;;;;;;;;19.60;53.40;;;;;;4184026;28;19916;-88
2022/07/11 09:47:44;;;;;;;;;;;19.70;52.00;;;;;;4170827;28;20481;-85
2022/07/11 09:50:05;;;;;;;;;;;19.70;52.60;;;;;;4181581;28;19919;-87
2022/07/11 09:52:26;;;;;;;;;;;19.80;52.80;;;;;;4180396;28;20582;-86
2022/07/11 09:54:57;;;;;;;;;;;19.80;53.40;;;;;;4183335;28;19924;-85
2022/07/11 09:57:18;;;;;;;;;;;19.80;52.80;;;;;;4186197;28;20394;-85
2022/07/11 09:59:39;;;;;;;;;;;19.90;52.50;;;;;;4169852;28;19916;-86
2022/07/11 10:02:00;;;;;;;;;;;19.90;52.60;;;;;;4171068;28;19956;-89
2022/07/11 10:04:21;;;;;;;;;;;20.00;51.90;;;;;;4184437;28;19908;-87
2022/07/11 10:06:42;;;;;;;;;;;20.00;52.00;;;;;;4184437;28;20302;-86
2022/07/11 10:09:04;;;;;;;;;;;20.00;52.00;;;;;;4170297;28;19917;-83
2022/07/11 10:11:25;;;;;;;;;;;20.00;51.50;;;;;;4167608;28;19924;-86
2022/07/11 10:13:46;;;;;;;;;;;20.00;51.40;;;;;;4185156;28;19966;-85
2022/07/11 10:16:17;;;;;;;;;;;20.00;51.50;;;;;;4168852;28;19924;-86
2022/07/11 10:18:59;;;;;;;;;;;20.10;51.60;;;;;;4170087;28;19952;-86
2022/07/11 10:21:52;;;;;;;;;;;20.10;51.60;;;;;;4172533;28;20018;-87
2022/07/11 10:24:26;;;;;;;;;;;20.10;51.10;;;;;;4148252;28;21648;-86
2022/07/11 10:26:54;;;;;;;;;;;20.20;51.60;;;;;;4179712;28;19916;-85
2022/07/11 10:29:17;;;;;;;;;;;20.30;51.10;;;;;;4181021;28;19913;-86
2022/07/11 10:31:39;;;;;;;;;;;20.30;51.20;;;;;;4180344;28;19913;-85
2022/07/11 10:34:08;;;;;;;;;;;20.30;50.60;;;;;;4171083;28;19924;-86
2022/07/11 10:36:30;;;;;;;;;;;20.40;50.70;;;;;;4177850;28;19993;-88
2022/07/11 10:39:11;;;;;;;;;;;20.50;51.10;;;;;;4173027;28;19983;-86
2022/07/11 10:41:32;;;;;;;;;;;20.50;50.80;;;;;;4172847;28;19909;-87
2022/07/11 10:43:57;;;;;;;;;;;20.60;50.70;;;;;;4173485;28;20282;-85
2022/07/11 10:46:21;;;;;;;;;;;20.60;51.00;;;;;;4186154;28;19917;-87
2022/07/11 10:49:00;;;;;;;;;;;20.70;50.80;;;;;;4186068;28;19952;-88
2022/07/11 10:51:28;;;;;;;;;;;20.80;50.70;;;;;;4172693;28;19977;-87
2022/07/11 10:53:50;;;;;;;;;;;20.90;51.40;;;;;;4182695;28;19908;-85
2022/07/11 10:56:29;;;;;;;;;;;20.90;51.20;;;;;;4182841;28;19928;-86
2022/07/11 10:58:59;;;;;;;;;;;21.00;50.80;;;;;;4172923;28;19912;-86
2022/07/11 11:01:20;;;;;;;;;;;21.10;50.20;;;;;;4183202;28;19923;-90
2022/07/11 11:03:43;;;;;;;;;;;21.10;49.30;;;;;;4183970;28;19909;-86
2022/07/11 11:06:04;;;;;;;;;;;21.20;48.60;;;;;;4183180;28;19915;-86
2022/07/11 11:08:35;;;;;;;;;;;21.10;47.80;;;;;;4171686;28;20294;-87
2022/07/11 11:10:56;;;;;;;;;;;21.10;47.60;;;;;;4188497;28;19931;-83
2022/07/11 11:13:20;;;;;;;;;;;21.20;48.00;;;;;;4171906;28;19920;-86
2022/07/11 11:15:41;;;;;;;;;;;21.10;48.00;;;;;;4173042;28;19908;-87
2022/07/11 11:18:40;;;;;;;;;;;21.10;48.40;;;;;;4172047;28;19909;-84
2022/07/11 11:21:01;;;;;;;;;;;21.20;48.10;;;;;;4140449;28;20651;-86
2022/07/11 11:23:22;;;;;;;;;;;21.30;48.70;;;;;;4163238;28;19909;-87
2022/07/11 11:25:49;;;;;;;;;;;21.30;48.80;;;;;;4166446;28;19909;-87
2022/07/11 11:28:19;;;;;;;;;;;21.30;49.00;;;;;;4183615;28;19999;-86
2022/07/11 11:30:51;;;;;;;;;;;21.30;48.40;;;;;;4172928;28;19913;-87
2022/07/11 11:33:16;;;;;;;;;;;21.40;47.40;;;;;;4182005;28;19908;-87
2022/07/11 11:35:37;;;;;;;;;;;21.40;48.10;;;;;;4180121;28;19917;-87
2022/07/11 11:37:58;;;;;;;;;;;21.50;47.70;;;;;;4183564;28;19909;-88
2022/07/11 11:40:19;;;;;;;;;;;21.50;47.90;;;;;;4188746;28;19954;-87
2022/07/11 11:42:40;;;;;;;;;;;21.60;48.20;;;;;;4170491;28;20139;-85
2022/07/11 11:45:03;;;;;;;;;;;21.60;47.80;;;;;;4187413;28;19954;-88
2022/07/11 11:47:23;;;;;;;;;;;21.70;47.00;;;;;;4179888;28;19909;-87
2022/07/11 11:49:45;;;;;;;;;;;21.70;47.50;;;;;;4175985;28;19913;-87
2022/07/11 11:52:06;;;;;;;;;;;21.70;47.20;;;;;;4179009;28;19931;-86
2022/07/11 11:54:27;;;;;;;;;;;21.70;47.00;;;;;;4193716;28;20186;-86
2022/07/11 11:56:48;;;;;;;;;;;21.70;47.20;;;;;;4194727;28;20267;-87
2022/07/11 11:59:13;;;;;;;;;;;21.70;46.80;;;;;;4181082;28;19904;-88
2022/07/11 12:01:35;;;;;;;;;;;21.70;46.60;;;;;;4180948;28;19947;-88
2022/07/11 12:03:57;;;;;;;;;;;21.70;46.00;;;;;;4186487;28;20001;-88
2022/07/11 12:06:21;;;;;;;;;;;21.80;46.20;;;;;;4186875;28;20472;-87
2022/07/11 12:08:42;;;;;;;;;;;21.80;46.30;;;;;;4172673;28;20390;-89
2022/07/11 12:11:03;;;;;;;;;;;21.80;46.50;;;;;;4183122;28;19908;-86
2022/07/11 12:13:24;;;;;;;;;;;21.90;46.90;;;;;;4169864;28;19916;-87
2022/07/11 12:18:25;;;;;;;;;;;21.90;45.40;;;;;;4183810;28;21224;-87
2022/07/11 12:20:46;;;;;;;;;;;21.90;45.20;;;;;;4182350;28;19966;-88
2022/07/11 12:23:11;;;;;;;;;;;21.90;45.40;;;;;;4172193;28;19913;-87
2022/07/11 12:25:32;;;;;;;;;;;22.00;44.60;;;;;;4172214;28;19909;-87
2022/07/11 12:27:57;;;;;;;;;;;22.00;45.50;;;;;;4183652;28;19924;-88
2022/07/11 12:30:22;;;;;;;;;;;22.00;45.90;;;;;;4186849;28;19920;-88
2022/07/11 12:33:01;;;;;;;;;;;22.00;45.10;;;;;;4177652;28;19952;-86
2022/07/11 12:35:21;;;;;;;;;;;22.10;43.80;;;;;;4182673;28;20367;-87
2022/07/11 12:37:43;;;;;;;;;;;22.10;45.10;;;;;;4170744;28;20003;-86
2022/07/11 12:40:06;;;;;;;;;;;22.10;45.70;;;;;;4187098;28;19909;-88
2022/07/11 12:42:32;;;;;;;;;;;22.20;43.10;;;;;;4189915;28;19959;-89
2022/07/11 12:45:07;;;;;;;;;;;22.20;45.00;;;;;;4195242;28;20458;-87
2022/07/11 12:47:28;;;;;;;;;;;22.20;44.10;;;;;;4171381;28;19955;-88
2022/07/11 12:49:50;;;;;;;;;;;22.30;45.10;;;;;;4171302;28;19916;-87
2022/07/11 12:52:12;;;;;;;;;;;22.30;44.90;;;;;;4174328;28;19913;-87
2022/07/11 12:54:33;;;;;;;;;;;22.40;44.90;;;;;;4175618;28;19932;-85
2022/07/11 12:56:57;;;;;;;;;;;22.40;44.90;;;;;;4188341;28;19908;-87
2022/07/11 12:59:20;;;;;;;;;;;22.40;45.00;;;;;;4185728;28;19915;-86
2022/07/11 13:01:53;;;;;;;;;;;22.40;44.60;;;;;;4186293;28;19923;-87
2022/07/11 13:04:29;;;;;;;;;;;22.40;44.70;;;;;;4184800;28;19920;-86
2022/07/11 13:09:30;;;;;;;;;;;22.50;43.00;;;;;;4184438;28;19990;-86
2022/07/11 13:11:51;;;;;;;;;;;22.50;44.00;;;;;;4184821;28;19920;-86
2022/07/11 13:16:51;;;;;;;;;;;22.50;44.10;;;;;;4188640;28;20410;-86
2022/07/11 13:19:12;;;;;;;;;;;22.50;41.40;;;;;;4173465;28;20409;-85
2022/07/11 13:21:33;;;;;;;;;;;22.50;43.30;;;;;;4174298;28;19951;-88
2022/07/11 13:23:54;;;;;;;;;;;22.50;43.40;;;;;;4193378;28;19911;-88
2022/07/11 13:26:15;;;;;;;;;;;22.50;42.40;;;;;;4185408;28;19966;-88
2022/07/11 13:28:37;;;;;;;;;;;22.50;43.30;;;;;;4184209;28;19951;-86
2022/07/11 13:30:58;;;;;;;;;;;22.50;43.80;;;;;;4200349;28;19908;-87
2022/07/11 13:33:20;;;;;;;;;;;22.50;43.60;;;;;;4174063;28;19913;-86
2022/07/11 13:35:40;;;;;;;;;;;22.50;43.90;;;;;;4185465;28;19958;-86
2022/07/11 13:38:01;;;;;;;;;;;22.60;44.10;;;;;;4185173;28;20362;-87
2022/07/11 13:40:23;;;;;;;;;;;22.60;42.80;;;;;;4175996;28;19909;-88
2022/07/11 13:42:48;;;;;;;;;;;22.60;43.20;;;;;;4178747;28;19999;-88
2022/07/11 13:45:09;;;;;;;;;;;22.60;43.40;;;;;;4173643;28;19915;-85
2022/07/11 13:47:32;;;;;;;;;;;22.60;42.40;;;;;;4172437;28;19956;-87
2022/07/11 13:49:53;;;;;;;;;;;22.60;42.90;;;;;;4186615;28;19912;-87
2022/07/11 13:52:13;;;;;;;;;;;22.60;43.00;;;;;;4193384;28;19909;-87
2022/07/11 13:54:34;;;;;;;;;;;22.60;43.20;;;;;;4189422;28;20001;-88
2022/07/11 13:56:55;;;;;;;;;;;22.60;43.00;;;;;;4187479;28;19908;-86
2022/07/11 13:59:16;;;;;;;;;;;22.60;42.00;;;;;;4175421;28;20025;-88
2022/07/11 14:01:37;;;;;;;;;;;22.60;43.40;;;;;;4177270;28;20004;-89
2022/07/11 14:03:58;;;;;;;;;;;22.60;44.00;;;;;;4181990;28;20042;-88
2022/07/11 14:06:19;;;;;;;;;;;22.60;44.20;;;;;;4181014;28;19908;-89